Time;durP1;ratioP1;P1;durP2;ratioP2;P2;SDS_P1;SDS_P2;PMS_P1;PMS_P2;Temp;Humidity;BMP_temperature;BMP_pressure;BME280_temperature;BME280_humidity;BME280_pressure;Samples;Min_cycle;Max_cycle;Signal;HPM_P1;HPM_P2
2023/05/16 00:01:57;;;;;;;3.15;1.60;;;23.50;51.50;;;;;;5037713;28;20484;-67
2023/05/16 00:04:23;;;;;;;2.80;1.60;;;23.50;51.50;;;;;;5037464;28;20108;-67
2023/05/16 00:06:49;;;;;;;3.45;1.80;;;23.50;51.50;;;;;;5037238;28;20554;-67
2023/05/16 00:09:14;;;;;;;3.15;1.70;;;23.50;51.50;;;;;;5039678;28;20033;-67
2023/05/16 00:11:40;;;;;;;2.83;1.50;;;23.40;51.50;;;;;;5037815;28;20769;-67
2023/05/16 00:14:06;;;;;;;3.70;1.70;;;23.40;51.50;;;;;;5035976;28;20116;-67
2023/05/16 00:16:32;;;;;;;3.15;1.70;;;23.40;51.50;;;;;;5039310;28;20022;-66
2023/05/16 00:18:59;;;;;;;3.20;1.60;;;23.40;51.50;;;;;;5040552;28;20131;-67
2023/05/16 00:21:25;;;;;;;3.20;1.63;;;23.40;51.50;;;;;;5038259;28;20032;-67
2023/05/16 00:23:51;;;;;;;3.78;1.83;;;23.40;51.50;;;;;;5035046;28;20115;-67
2023/05/16 00:26:17;;;;;;;3.10;1.52;;;23.40;51.50;;;;;;5036810;28;20418;-67
2023/05/16 00:28:43;;;;;;;2.90;1.60;;;23.40;51.50;;;;;;5036236;28;20065;-67
2023/05/16 00:31:09;;;;;;;2.70;1.60;;;23.40;51.50;;;;;;5038249;28;20096;-67
2023/05/16 00:33:34;;;;;;;3.00;1.60;;;23.40;51.50;;;;;;5039268;28;20029;-67
2023/05/16 00:36:00;;;;;;;2.80;1.55;;;23.40;51.60;;;;;;5039187;28;20025;-66
2023/05/16 00:38:26;;;;;;;3.17;1.77;;;23.30;51.50;;;;;;5036615;28;20385;-66
2023/05/16 00:40:52;;;;;;;3.08;1.60;;;23.30;51.50;;;;;;5035459;28;20052;-67
2023/05/16 00:43:17;;;;;;;2.97;1.70;;;23.30;51.50;;;;;;5036126;28;20063;-67
2023/05/16 00:45:43;;;;;;;3.42;1.67;;;23.30;51.50;;;;;;5038885;28;20053;-67
2023/05/16 00:48:11;;;;;;;3.40;1.50;;;23.30;51.50;;;;;;5040097;28;20083;-68
2023/05/16 00:50:37;;;;;;;2.85;1.50;;;23.30;51.60;;;;;;5036980;28;20041;-66
2023/05/16 00:53:03;;;;;;;2.70;1.60;;;23.30;51.50;;;;;;5035863;28;20512;-67
2023/05/16 00:55:30;;;;;;;2.50;1.42;;;23.30;51.50;;;;;;5035508;28;20018;-66
2023/05/16 00:57:58;;;;;;;3.15;1.58;;;23.30;51.60;;;;;;5035999;28;20022;-67
2023/05/16 01:00:24;;;;;;;2.20;1.30;;;23.20;51.50;;;;;;5037902;28;20760;-67
2023/05/16 01:02:52;;;;;;;3.28;1.67;;;23.20;51.50;;;;;;5038701;28;20029;-65
2023/05/16 01:05:19;;;;;;;4.18;1.52;;;23.20;51.50;;;;;;5036812;28;20038;-66
2023/05/16 01:07:44;;;;;;;2.75;1.50;;;23.20;51.50;;;;;;5037938;28;20083;-67
2023/05/16 01:10:11;;;;;;;3.13;1.40;;;23.20;51.60;;;;;;5038137;28;20025;-67
2023/05/16 01:12:52;;;;;;;2.83;1.50;;;23.20;51.60;;;;;;5037984;28;20488;-66
2023/05/16 01:15:23;;;;;;;2.20;1.38;;;23.20;51.60;;;;;;5036235;28;20109;-66
2023/05/16 01:18:20;;;;;;;2.83;1.65;;;23.20;51.60;;;;;;5039742;28;20064;-66
2023/05/16 01:21:03;;;;;;;2.95;1.50;;;23.20;51.60;;;;;;5041322;28;20037;-66
2023/05/16 01:23:48;;;;;;;2.33;1.40;;;23.10;51.50;;;;;;5040849;28;20434;-67
2023/05/16 01:26:25;;;;;;;2.58;1.52;;;23.10;51.50;;;;;;5041131;28;20076;-67
2023/05/16 01:28:52;;;;;;;2.42;1.40;;;23.10;51.50;;;;;;5038419;28;20906;-67
2023/05/16 01:31:19;;;;;;;2.80;1.60;;;23.10;51.50;;;;;;5040934;28;20132;-67
2023/05/16 01:33:45;;;;;;;2.70;1.40;;;23.10;51.50;;;;;;5037790;28;20108;-67
2023/05/16 01:36:43;;;;;;;4.20;1.70;;;23.10;51.60;;;;;;5040502;28;20029;-67
2023/05/16 01:39:23;;;;;;;3.35;1.60;;;23.10;51.60;;;;;;5036331;28;20040;-67
2023/05/16 01:41:52;;;;;;;2.25;1.42;;;23.10;51.60;;;;;;5040593;28;20108;-67
2023/05/16 01:44:34;;;;;;;2.37;1.37;;;23.10;51.60;;;;;;5038387;28;20033;-67
2023/05/16 01:47:03;;;;;;;3.00;1.60;;;23.10;51.60;;;;;;5040198;28;20037;-67
2023/05/16 01:49:48;;;;;;;2.65;1.40;;;23.00;51.50;;;;;;5041892;28;20027;-66
2023/05/16 01:52:21;;;;;;;2.75;1.50;;;23.00;51.60;;;;;;5041973;28;20084;-67
2023/05/16 01:54:49;;;;;;;3.22;1.50;;;23.00;51.50;;;;;;5041884;28;20017;-67
2023/05/16 01:57:16;;;;;;;2.83;1.50;;;23.00;51.60;;;;;;5040715;28;20428;-67
2023/05/16 01:59:42;;;;;;;2.22;1.40;;;23.00;51.60;;;;;;5038653;28;20374;-67
2023/05/16 02:02:08;;;;;;;3.00;1.50;;;23.00;51.60;;;;;;5041025;28;20051;-67
2023/05/16 02:04:33;;;;;;;3.22;1.65;;;23.00;51.60;;;;;;5040436;28;20151;-67
2023/05/16 02:07:00;;;;;;;2.33;1.50;;;23.00;51.60;;;;;;5043312;28;20044;-67
2023/05/16 02:09:26;;;;;;;2.67;1.50;;;23.00;51.60;;;;;;5039970;28;20026;-67
2023/05/16 02:11:52;;;;;;;2.25;1.45;;;23.00;51.60;;;;;;5038880;28;20124;-66
2023/05/16 02:14:17;;;;;;;2.90;1.30;;;23.00;51.60;;;;;;5040704;28;20025;-67
2023/05/16 02:16:43;;;;;;;2.67;1.30;;;23.00;51.60;;;;;;5040421;28;20032;-66
2023/05/16 02:19:08;;;;;;;2.05;1.30;;;23.00;51.60;;;;;;5039986;28;20114;-66
2023/05/16 02:21:34;;;;;;;2.40;1.42;;;22.90;51.50;;;;;;5039937;28;20056;-68
2023/05/16 02:24:00;;;;;;;2.42;1.42;;;22.90;51.60;;;;;;5039538;28;20037;-66
2023/05/16 02:26:25;;;;;;;2.58;1.30;;;22.90;51.60;;;;;;5039885;28;20489;-67
2023/05/16 02:28:51;;;;;;;2.20;1.38;;;22.90;51.60;;;;;;5038362;28;20044;-67
2023/05/16 02:31:30;;;;;;;2.55;1.45;;;22.90;51.60;;;;;;5038421;28;20033;-67
2023/05/16 02:33:57;;;;;;;;;;;22.90;51.60;;;;;;5038686;28;20031;-67
2023/05/16 02:36:23;;;;;;;3.08;1.45;;;22.90;51.60;;;;;;5039863;28;19915;-66
2023/05/16 02:38:49;;;;;;;2.30;1.20;;;22.90;51.60;;;;;;5038547;28;20056;-66
2023/05/16 02:41:15;;;;;;;2.60;1.30;;;22.90;51.60;;;;;;5038874;28;20022;-67
2023/05/16 02:43:40;;;;;;;2.30;1.27;;;22.90;51.60;;;;;;5035032;28;20104;-67
2023/05/16 02:46:29;;;;;;;2.35;1.30;;;22.90;51.60;;;;;;5038253;28;20564;-67
2023/05/16 02:48:55;;;;;;;2.20;1.30;;;22.90;51.60;;;;;;5041237;28;20128;-66
2023/05/16 02:51:22;;;;;;;3.17;1.40;;;22.90;51.60;;;;;;5036811;28;20033;-67
2023/05/16 02:53:48;;;;;;;2.17;1.30;;;22.90;51.60;;;;;;5037409;28;20445;-66
2023/05/16 02:56:14;;;;;;;2.78;1.60;;;22.80;51.60;;;;;;5042264;28;20071;-66
2023/05/16 02:58:40;;;;;;;2.42;1.42;;;22.80;51.60;;;;;;5036637;28;20048;-67
2023/05/16 03:01:06;;;;;;;2.38;1.25;;;22.80;51.60;;;;;;5037151;28;20042;-67
2023/05/16 03:03:34;;;;;;;2.72;1.33;;;22.80;51.60;;;;;;5041113;28;20116;-67
2023/05/16 03:05:59;;;;;;;2.30;1.30;;;22.80;51.60;;;;;;5039607;28;20021;-67
2023/05/16 03:08:25;;;;;;;2.50;1.42;;;22.80;51.60;;;;;;5037120;28;20073;-67
2023/05/16 03:10:51;;;;;;;2.53;1.27;;;22.80;51.60;;;;;;5039467;28;20032;-67
2023/05/16 03:13:17;;;;;;;2.00;1.20;;;22.80;51.60;;;;;;5038693;28;20100;-67
2023/05/16 03:15:42;;;;;;;3.05;1.45;;;22.80;51.60;;;;;;5038436;28;20025;-68
2023/05/16 03:18:08;;;;;;;2.40;1.48;;;22.80;51.60;;;;;;5038458;28;20021;-68
2023/05/16 03:20:33;;;;;;;2.60;1.40;;;22.70;51.50;;;;;;5039661;28;20358;-67
2023/05/16 03:22:59;;;;;;;2.72;1.60;;;22.70;52.10;;;;;;5039689;28;20385;-67
2023/05/16 03:25:25;;;;;;;3.13;1.40;;;22.70;51.60;;;;;;5038453;28;20105;-65
2023/05/16 03:27:51;;;;;;;2.25;1.40;;;22.70;51.60;;;;;;5036447;28;20049;-67
2023/05/16 03:30:18;;;;;;;2.40;1.27;;;22.70;51.60;;;;;;5037775;28;20064;-67
2023/05/16 03:32:44;;;;;;;1.90;1.30;;;22.70;51.60;;;;;;5040053;28;20534;-66
2023/05/16 03:35:10;;;;;;;1.85;1.20;;;22.70;51.60;;;;;;5037196;28;20036;-67
2023/05/16 03:37:37;;;;;;;1.95;1.27;;;22.70;51.60;;;;;;5038541;28;20075;-67
2023/05/16 03:40:04;;;;;;;2.33;1.50;;;22.70;51.60;;;;;;5039827;28;20113;-67
2023/05/16 03:42:31;;;;;;;2.55;1.50;;;22.70;51.60;;;;;;5038716;28;20070;-67
2023/05/16 03:44:57;;;;;;;2.20;1.33;;;22.70;51.60;;;;;;5038144;28;20044;-66
2023/05/16 03:47:23;;;;;;;1.77;1.15;;;22.70;51.60;;;;;;5039913;28;20083;-67
2023/05/16 03:49:48;;;;;;;2.47;1.33;;;22.70;51.80;;;;;;5034486;28;20029;-66
2023/05/16 03:52:14;;;;;;;2.08;1.13;;;22.70;51.60;;;;;;5035066;28;20034;-66
2023/05/16 03:54:39;;;;;;;2.10;1.20;;;22.70;51.60;;;;;;5038574;28;20037;-66
2023/05/16 03:57:05;;;;;;;1.90;1.10;;;22.70;51.60;;;;;;5039526;28;20028;-65
2023/05/16 03:59:30;;;;;;;2.10;1.40;;;22.70;51.60;;;;;;5036153;28;20045;-66
2023/05/16 04:01:56;;;;;;;2.30;1.30;;;22.70;51.60;;;;;;5038496;28;20082;-66
2023/05/16 04:04:22;;;;;;;2.30;1.40;;;22.70;51.60;;;;;;5036628;28;20029;-66
2023/05/16 04:06:47;;;;;;;1.90;1.20;;;22.70;51.70;;;;;;5038418;28;20044;-67
2023/05/16 04:09:13;;;;;;;2.05;1.30;;;22.70;51.60;;;;;;5039288;28;20025;-66
2023/05/16 04:11:39;;;;;;;1.90;1.30;;;22.60;51.60;;;;;;5038757;28;20040;-67
2023/05/16 04:14:04;;;;;;;2.05;1.23;;;22.60;51.60;;;;;;5038654;28;20477;-66
2023/05/16 04:16:30;;;;;;;2.53;1.40;;;22.60;51.60;;;;;;5036040;28;20021;-66
2023/05/16 04:18:56;;;;;;;2.38;1.30;;;22.60;51.70;;;;;;5036019;28;20033;-66
2023/05/16 04:21:21;;;;;;;1.73;1.20;;;22.60;51.70;;;;;;5037534;28;21032;-66
2023/05/16 04:23:47;;;;;;;2.40;1.30;;;22.60;51.70;;;;;;5039053;28;20429;-65
2023/05/16 04:26:13;;;;;;;1.77;1.10;;;22.60;51.70;;;;;;5036313;28;20179;-66
2023/05/16 04:28:40;;;;;;;1.75;1.20;;;22.60;51.70;;;;;;5036268;28;20040;-66
2023/05/16 04:31:06;;;;;;;1.80;1.20;;;22.60;51.70;;;;;;5036642;28;20032;-66
2023/05/16 04:33:32;;;;;;;1.73;1.20;;;22.60;51.70;;;;;;5035742;28;20013;-64
2023/05/16 04:35:59;;;;;;;1.80;1.30;;;22.60;51.70;;;;;;5037105;28;20017;-64
2023/05/16 04:38:25;;;;;;;2.17;1.30;;;22.60;51.80;;;;;;5039436;28;20453;-64
2023/05/16 04:40:51;;;;;;;2.13;1.20;;;22.50;51.70;;;;;;5044739;28;20037;-64
2023/05/16 04:43:17;;;;;;;2.17;1.20;;;22.50;51.70;;;;;;5035722;28;20029;-64
2023/05/16 04:45:43;;;;;;;2.25;1.13;;;22.60;51.80;;;;;;5036794;28;20055;-63
2023/05/16 04:48:10;;;;;;;2.40;1.40;;;22.50;51.80;;;;;;5039925;28;20025;-64
2023/05/16 04:50:36;;;;;;;2.75;1.30;;;22.50;51.80;;;;;;5037451;28;20152;-63
2023/05/16 04:53:02;;;;;;;2.40;1.42;;;22.50;51.80;;;;;;5039471;28;20026;-64
2023/05/16 04:55:28;;;;;;;1.90;1.10;;;22.50;51.80;;;;;;5040144;28;20025;-64
2023/05/16 04:57:53;;;;;;;2.00;1.20;;;22.50;51.80;;;;;;5041783;28;20168;-63
2023/05/16 05:00:19;;;;;;;2.40;1.10;;;22.50;51.80;;;;;;5038880;28;20025;-64
2023/05/16 05:02:45;;;;;;;1.77;1.23;;;22.50;51.80;;;;;;5043210;28;20393;-64
2023/05/16 05:05:11;;;;;;;1.92;1.10;;;22.50;51.80;;;;;;5038800;28;20037;-66
2023/05/16 05:07:37;;;;;;;2.58;1.20;;;22.50;51.80;;;;;;5042734;28;20132;-66
2023/05/16 05:10:02;;;;;;;1.48;1.00;;;22.50;51.90;;;;;;5039958;28;20021;-66
2023/05/16 05:12:28;;;;;;;2.45;1.27;;;22.50;51.80;;;;;;5041850;28;20100;-66
2023/05/16 05:14:54;;;;;;;1.85;1.27;;;22.50;51.80;;;;;;5040225;28;20108;-66
2023/05/16 05:17:20;;;;;;;1.52;1.10;;;22.50;51.80;;;;;;5042301;28;20056;-66
2023/05/16 05:19:47;;;;;;;1.65;1.02;;;22.50;51.80;;;;;;5045782;28;20032;-66
2023/05/16 05:22:13;;;;;;;2.17;1.20;;;22.40;51.80;;;;;;5040754;28;20030;-65
2023/05/16 05:24:39;;;;;;;2.20;1.40;;;22.50;51.80;;;;;;5040647;28;20060;-66
2023/05/16 05:27:05;;;;;;;1.90;1.10;;;22.40;51.80;;;;;;5040314;28;20060;-65
2023/05/16 05:29:30;;;;;;;3.00;1.10;;;22.50;51.90;;;;;;5039318;28;20045;-66
2023/05/16 05:31:56;;;;;;;2.15;1.30;;;22.40;51.80;;;;;;5041002;28;20045;-66
2023/05/16 05:34:21;;;;;;;1.80;1.20;;;22.40;51.80;;;;;;5038961;28;20021;-65
2023/05/16 05:36:47;;;;;;;1.60;1.13;;;22.40;51.80;;;;;;5040035;28;20013;-67
2023/05/16 05:39:13;;;;;;;1.77;1.23;;;22.40;52.00;;;;;;5041621;28;20111;-65
2023/05/16 05:41:39;;;;;;;2.15;1.40;;;22.40;52.00;;;;;;5037326;28;20478;-66
2023/05/16 05:44:05;;;;;;;1.63;1.13;;;22.40;51.90;;;;;;5039345;28;20389;-66
2023/05/16 05:46:32;;;;;;;1.83;1.30;;;22.40;51.90;;;;;;5038822;28;20231;-65
2023/05/16 05:48:58;;;;;;;1.80;1.17;;;22.40;51.90;;;;;;5041846;28;20576;-65
2023/05/16 05:51:24;;;;;;;2.20;1.38;;;22.40;51.90;;;;;;5041451;28;20365;-65
2023/05/16 05:53:51;;;;;;;2.88;1.58;;;22.40;51.90;;;;;;5040871;28;20082;-66
2023/05/16 05:56:17;;;;;;;1.85;0.98;;;22.40;51.90;;;;;;5040972;28;20105;-66
2023/05/16 05:58:43;;;;;;;2.25;1.10;;;22.40;51.90;;;;;;5039745;28;20461;-66
2023/05/16 06:01:11;;;;;;;2.15;1.40;;;22.40;52.00;;;;;;5041168;28;20022;-66
2023/05/16 06:03:37;;;;;;;2.15;1.30;;;22.30;51.90;;;;;;5038041;28;20144;-65
2023/05/16 06:06:03;;;;;;;2.25;1.35;;;22.30;51.90;;;;;;5039546;28;20101;-65
2023/05/16 06:08:29;;;;;;;2.35;1.17;;;22.40;51.90;;;;;;5039303;28;20029;-65
2023/05/16 06:10:55;;;;;;;2.33;1.30;;;22.40;51.90;;;;;;5037306;28;20091;-65
2023/05/16 06:13:20;;;;;;;2.33;1.20;;;22.40;52.00;;;;;;5038884;28;20029;-66
2023/05/16 06:15:53;;;;;;;2.42;1.23;;;22.30;51.90;;;;;;5041642;28;20099;-67
2023/05/16 06:18:19;;;;;;;3.15;1.30;;;22.30;51.90;;;;;;5038673;28;20021;-65
2023/05/16 06:20:45;;;;;;;2.80;1.42;;;22.40;52.10;;;;;;5038637;28;20025;-65
2023/05/16 06:23:11;;;;;;;2.72;1.40;;;22.40;52.10;;;;;;5038589;28;20083;-65
2023/05/16 06:25:37;;;;;;;2.88;1.20;;;22.30;52.00;;;;;;5039770;28;20359;-65
2023/05/16 06:28:03;;;;;;;3.75;1.98;;;22.30;52.00;;;;;;5041425;28;20541;-65
2023/05/16 06:30:28;;;;;;;2.78;1.33;;;22.30;52.00;;;;;;5036991;28;20485;-65
2023/05/16 06:32:54;;;;;;;3.50;1.30;;;22.30;52.00;;;;;;5039130;28;20116;-65
2023/05/16 06:35:19;;;;;;;2.65;1.40;;;22.30;52.00;;;;;;5037634;28;20489;-65
2023/05/16 06:37:45;;;;;;;2.80;1.23;;;22.30;52.00;;;;;;5041352;28;20109;-65
2023/05/16 06:40:11;;;;;;;3.17;1.70;;;22.30;52.00;;;;;;5038078;28;20088;-65
2023/05/16 06:42:37;;;;;;;3.42;1.48;;;22.30;52.00;;;;;;5037775;28;20374;-65
2023/05/16 06:45:03;;;;;;;3.33;1.77;;;22.30;52.00;;;;;;5038961;28;20037;-65
2023/05/16 06:47:28;;;;;;;3.05;1.83;;;22.30;52.00;;;;;;5043761;28;20025;-65
2023/05/16 06:49:54;;;;;;;3.40;1.55;;;22.30;52.00;;;;;;5041519;28;20039;-65
2023/05/16 06:52:20;;;;;;;2.78;1.50;;;22.30;52.00;;;;;;5041148;28;20441;-65
2023/05/16 06:54:46;;;;;;;2.67;1.35;;;22.30;52.00;;;;;;5040721;28;20037;-65
2023/05/16 06:57:12;;;;;;;2.65;1.50;;;22.30;52.00;;;;;;5039626;28;20037;-65
2023/05/16 06:59:38;;;;;;;2.40;1.30;;;22.30;52.00;;;;;;5038948;28;20021;-65
2023/05/16 07:02:04;;;;;;;3.65;1.60;;;22.20;52.00;;;;;;5038619;28;20416;-65
2023/05/16 07:04:30;;;;;;;3.70;1.40;;;22.20;52.00;;;;;;5042571;28;20107;-64
2023/05/16 07:06:56;;;;;;;3.00;1.42;;;22.20;52.00;;;;;;5036359;28;20580;-65
2023/05/16 07:09:22;;;;;;;4.88;1.67;;;22.20;52.00;;;;;;5037588;28;20060;-65
2023/05/16 07:11:47;;;;;;;3.20;1.50;;;22.20;52.10;;;;;;5038601;28;20024;-65
2023/05/16 07:14:13;;;;;;;3.42;1.52;;;22.20;52.00;;;;;;5037052;28;20147;-65
2023/05/16 07:16:38;;;;;;;2.58;1.50;;;22.20;52.00;;;;;;5038573;28;20021;-66
2023/05/16 07:19:04;;;;;;;4.13;1.65;;;22.20;52.10;;;;;;5038888;28;20048;-66
2023/05/16 07:21:30;;;;;;;4.22;1.90;;;22.20;52.10;;;;;;5035681;28;20029;-65
2023/05/16 07:23:56;;;;;;;2.78;1.60;;;22.20;52.10;;;;;;5037634;28;20035;-65
2023/05/16 07:26:22;;;;;;;4.18;1.90;;;22.20;52.10;;;;;;5036411;28;20030;-65
2023/05/16 07:28:51;;;;;;;2.75;1.60;;;22.20;52.10;;;;;;5036411;28;20032;-65
2023/05/16 07:31:17;;;;;;;2.75;1.50;;;22.20;52.10;;;;;;5038181;28;20028;-65
2023/05/16 07:33:45;;;;;;;3.65;1.85;;;22.20;52.10;;;;;;5040423;28;20512;-65
2023/05/16 07:36:11;;;;;;;4.27;1.60;;;22.20;52.10;;;;;;5037846;28;20045;-65
2023/05/16 07:38:37;;;;;;;3.90;1.40;;;22.20;52.10;;;;;;5038002;28;20013;-66
2023/05/16 07:41:03;;;;;;;3.58;1.60;;;22.20;52.10;;;;;;5037520;28;20033;-65
2023/05/16 07:43:28;;;;;;;3.42;1.70;;;22.20;52.10;;;;;;5035192;28;20060;-65
2023/05/16 07:45:54;;;;;;;3.30;1.60;;;22.20;52.20;;;;;;5034835;28;20033;-65
2023/05/16 07:48:19;;;;;;;3.53;1.77;;;22.20;52.20;;;;;;5035680;28;20045;-65
2023/05/16 07:50:45;;;;;;;2.55;1.60;;;22.20;52.20;;;;;;5038137;28;20032;-65
2023/05/16 07:53:11;;;;;;;2.88;1.55;;;22.20;52.70;;;;;;5036223;28;20021;-65
2023/05/16 07:55:36;;;;;;;3.63;1.80;;;22.20;52.20;;;;;;5037287;28;20532;-65
2023/05/16 07:58:03;;;;;;;2.83;1.45;;;22.10;52.20;;;;;;5039585;28;20380;-65
2023/05/16 08:00:28;;;;;;;3.80;1.77;;;22.20;52.20;;;;;;5037794;28;20359;-64
2023/05/16 08:02:54;;;;;;;3.83;1.88;;;22.10;52.20;;;;;;5033481;28;20108;-65
2023/05/16 08:05:20;;;;;;;3.58;1.90;;;22.10;52.20;;;;;;5036785;28;20120;-66
2023/05/16 08:07:45;;;;;;;2.75;1.60;;;22.10;52.20;;;;;;5035808;28;20025;-65
2023/05/16 08:10:11;;;;;;;3.55;1.75;;;22.10;52.30;;;;;;5036198;28;20106;-65
2023/05/16 08:12:37;;;;;;;3.88;1.80;;;22.10;52.20;;;;;;5036360;28;20106;-65
2023/05/16 08:15:03;;;;;;;3.05;1.75;;;22.10;52.30;;;;;;5034701;28;20108;-65
2023/05/16 08:17:28;;;;;;;4.03;2.08;;;22.10;52.20;;;;;;5038642;28;20727;-65
2023/05/16 08:19:55;;;;;;;3.97;1.90;;;22.10;52.30;;;;;;5038694;28;20029;-65
2023/05/16 08:22:20;;;;;;;3.78;1.85;;;22.10;52.30;;;;;;5036077;28;20430;-65
2023/05/16 08:24:46;;;;;;;2.80;1.60;;;22.10;52.30;;;;;;5034987;28;20057;-65
2023/05/16 08:27:12;;;;;;;3.63;1.90;;;22.10;52.30;;;;;;5035357;28;20026;-64
2023/05/16 08:29:37;;;;;;;3.45;1.80;;;22.10;52.30;;;;;;5038140;28;20037;-65
2023/05/16 08:32:03;;;;;;;3.33;1.90;;;22.10;52.30;;;;;;5038004;28;20477;-65
2023/05/16 08:34:32;;;;;;;3.80;1.98;;;22.10;52.30;;;;;;5036667;28;20029;-65
2023/05/16 08:36:58;;;;;;;3.33;2.03;;;22.10;52.30;;;;;;5038049;28;20021;-65
2023/05/16 08:39:24;;;;;;;3.95;2.00;;;22.10;52.30;;;;;;5038626;28;20108;-65
2023/05/16 08:41:49;;;;;;;3.50;1.80;;;22.10;52.30;;;;;;5035810;28;20100;-65
2023/05/16 08:44:20;;;;;;;3.13;1.60;;;22.10;52.30;;;;;;5035889;28;20095;-65
2023/05/16 08:46:50;;;;;;;3.55;1.70;;;22.10;52.30;;;;;;5041805;28;20121;-65
2023/05/16 08:49:17;;;;;;;3.17;1.60;;;22.10;52.30;;;;;;5039962;28;20033;-65
2023/05/16 08:51:45;;;;;;;3.53;1.70;;;22.10;52.40;;;;;;5037830;28;20911;-65
2023/05/16 08:54:12;;;;;;;3.00;1.80;;;22.10;52.40;;;;;;5037367;28;20029;-65
2023/05/16 08:56:40;;;;;;;3.58;1.60;;;22.10;52.40;;;;;;5038036;28;20466;-65
2023/05/16 08:59:06;;;;;;;3.70;1.73;;;22.10;52.40;;;;;;5034971;28;20049;-65
2023/05/16 09:01:32;;;;;;;2.90;1.63;;;22.10;52.40;;;;;;5038634;28;20116;-65
2023/05/16 09:03:59;;;;;;;3.92;2.05;;;22.10;52.40;;;;;;5039180;28;20105;-65
2023/05/16 09:06:26;;;;;;;2.67;1.60;;;22.10;52.40;;;;;;5037653;28;20029;-65
2023/05/16 09:08:53;;;;;;;3.60;1.70;;;22.10;52.40;;;;;;5037372;28;20417;-65
2023/05/16 09:11:18;;;;;;;2.95;1.60;;;22.10;52.40;;;;;;5037881;28;20025;-65
2023/05/16 09:13:44;;;;;;;4.07;1.70;;;22.10;52.40;;;;;;5040436;28;20048;-65
2023/05/16 09:16:17;;;;;;;3.63;1.80;;;22.10;52.40;;;;;;5035687;28;20591;-65
2023/05/16 09:18:45;;;;;;;3.67;2.22;;;22.10;52.40;;;;;;5035464;28;20029;-65
2023/05/16 09:21:12;;;;;;;3.05;1.80;;;22.10;52.40;;;;;;5037472;28;20037;-65
2023/05/16 09:23:38;;;;;;;3.65;1.98;;;22.10;52.40;;;;;;5036964;28;20406;-65
2023/05/16 09:26:06;;;;;;;3.40;1.75;;;22.10;52.40;;;;;;5036038;28;20419;-64
2023/05/16 09:28:33;;;;;;;3.27;1.57;;;22.10;52.40;;;;;;5037325;28;20037;-65
2023/05/16 09:30:59;;;;;;;3.38;1.73;;;22.10;52.40;;;;;;5037609;28;20275;-66
2023/05/16 09:33:28;;;;;;;4.72;2.10;;;22.10;52.40;;;;;;5031864;28;20088;-65
2023/05/16 09:36:00;;;;;;;2.90;1.50;;;22.10;52.40;;;;;;5035815;28;20100;-65
2023/05/16 09:38:27;;;;;;;2.72;1.77;;;22.10;52.40;;;;;;5036136;28;20087;-65
2023/05/16 09:40:54;;;;;;;3.65;1.67;;;22.10;52.40;;;;;;5042082;28;20093;-65
2023/05/16 09:43:25;;;;;;;2.70;1.45;;;22.00;52.40;;;;;;5040128;28;20040;-65
2023/05/16 09:45:52;;;;;;;3.00;1.80;;;22.00;52.40;;;;;;5037637;28;20423;-65
2023/05/16 09:48:19;;;;;;;3.00;1.92;;;22.00;52.40;;;;;;5037884;28;20041;-65
2023/05/16 09:50:51;;;;;;;3.72;1.95;;;22.00;52.40;;;;;;5038533;28;20024;-65
2023/05/16 09:53:24;;;;;;;3.22;1.80;;;22.10;52.40;;;;;;5039123;28;20025;-65
2023/05/16 09:56:06;;;;;;;3.00;1.58;;;22.10;52.40;;;;;;5039340;28;20396;-65
2023/05/16 09:58:34;;;;;;;3.72;1.80;;;22.10;52.50;;;;;;5039881;28;20021;-65
2023/05/16 10:01:01;;;;;;;3.78;1.70;;;22.00;52.40;;;;;;5042095;28;20132;-65
2023/05/16 10:03:27;;;;;;;3.10;1.70;;;22.00;52.40;;;;;;5038710;28;20466;-65
2023/05/16 10:05:54;;;;;;;2.70;1.42;;;22.00;52.40;;;;;;5041840;28;20053;-65
2023/05/16 10:08:21;;;;;;;2.95;1.60;;;22.00;52.40;;;;;;5040119;28;20476;-65
2023/05/16 10:10:51;;;;;;;3.03;1.92;;;22.00;52.40;;;;;;5041080;28;20029;-65
2023/05/16 10:13:20;;;;;;;4.07;1.88;;;22.00;52.40;;;;;;5041005;28;20436;-65
2023/05/16 10:15:47;;;;;;;2.78;1.70;;;22.00;52.40;;;;;;5038423;28;20469;-65
2023/05/16 10:18:17;;;;;;;2.72;1.50;;;22.00;52.40;;;;;;5038009;28;20084;-65
2023/05/16 10:20:45;;;;;;;3.30;1.92;;;22.00;52.40;;;;;;5039099;28;20105;-65
2023/05/16 10:23:16;;;;;;;3.20;1.65;;;22.00;52.40;;;;;;5037640;28;20331;-64
2023/05/16 10:25:44;;;;;;;3.20;1.75;;;22.00;52.50;;;;;;5038041;28;20411;-65
2023/05/16 10:28:11;;;;;;;3.67;1.48;;;22.00;52.40;;;;;;5039512;28;20044;-65
2023/05/16 10:30:40;;;;;;;2.95;1.73;;;22.00;52.40;;;;;;5038417;28;20044;-65
2023/05/16 10:33:07;;;;;;;2.40;1.50;;;22.00;52.50;;;;;;5035254;28;20471;-65
2023/05/16 10:35:34;;;;;;;2.97;1.58;;;22.00;52.40;;;;;;5037963;28;20033;-65
2023/05/16 10:38:00;;;;;;;2.80;1.70;;;22.00;52.40;;;;;;5039543;28;20479;-65
2023/05/16 10:40:27;;;;;;;2.40;1.50;;;22.00;52.50;;;;;;5041021;28;20033;-65
2023/05/16 10:43:04;;;;;;;2.97;1.60;;;22.00;52.40;;;;;;5039266;28;20421;-65
2023/05/16 10:45:30;;;;;;;2.85;1.58;;;22.00;52.40;;;;;;5055146;28;20117;-65
2023/05/16 10:47:56;;;;;;;2.45;1.52;;;22.00;52.50;;;;;;5037527;28;20142;-67
2023/05/16 10:50:38;;;;;;;3.10;1.80;;;22.00;52.50;;;;;;5039902;28;20557;-66
2023/05/16 10:53:17;;;;;;;3.20;1.70;;;22.00;52.50;;;;;;5040532;28;20047;-65
2023/05/16 10:55:58;;;;;;;2.42;1.58;;;22.00;52.50;;;;;;5039538;28;20029;-66
2023/05/16 10:58:36;;;;;;;2.75;1.60;;;22.00;52.50;;;;;;5036951;28;20539;-66
2023/05/16 11:01:23;;;;;;;2.80;1.65;;;22.00;52.50;;;;;;5039235;28;20035;-66
2023/05/16 11:04:03;;;;;;;2.45;1.30;;;22.00;52.50;;;;;;5039123;28;20025;-66
2023/05/16 11:06:40;;;;;;;3.10;1.88;;;22.00;52.50;;;;;;5037879;28;20461;-62
2023/05/16 11:09:10;;;;;;;2.50;1.50;;;22.00;52.50;;;;;;5040280;28;20477;-67
2023/05/16 11:11:39;;;;;;;;;;;22.00;52.50;;;;;;5037344;28;20033;-67
2023/05/16 11:14:05;;;;;;;2.50;1.50;;;22.00;52.50;;;;;;5039688;28;19908;-66
2023/05/16 11:16:32;;;;;;;2.60;1.50;;;22.00;52.50;;;;;;5036924;28;20147;-66
2023/05/16 11:19:07;;;;;;;2.65;1.65;;;22.00;52.50;;;;;;5036955;28;20425;-66
2023/05/16 11:22:07;;;;;;;2.80;1.77;;;22.00;52.50;;;;;;5035779;28;20486;-65
2023/05/16 11:24:36;;;;;;;2.38;1.55;;;22.00;52.50;;;;;;5037071;28;20388;-66
2023/05/16 11:27:03;;;;;;;3.28;1.60;;;22.00;52.50;;;;;;5038276;28;20031;-66
2023/05/16 11:29:31;;;;;;;2.83;1.50;;;22.00;52.50;;;;;;5038514;28;20068;-65
2023/05/16 11:32:01;;;;;;;2.70;1.58;;;22.00;52.50;;;;;;5035447;28;20031;-66
2023/05/16 11:34:27;;;;;;;2.95;1.50;;;22.00;52.60;;;;;;5037496;28;20021;-65
2023/05/16 11:36:52;;;;;;;2.65;1.60;;;22.00;52.60;;;;;;5036161;28;20104;-66
2023/05/16 11:39:18;;;;;;;2.40;1.40;;;22.00;52.60;;;;;;5036306;28;20021;-65
2023/05/16 11:41:45;;;;;;;3.67;1.83;;;22.00;52.60;;;;;;5039058;28;20502;-66
2023/05/16 11:44:11;;;;;;;3.05;1.70;;;22.00;52.70;;;;;;5036656;28;20021;-66
2023/05/16 11:46:39;;;;;;;2.85;1.60;;;22.00;52.60;;;;;;5038758;28;20091;-66
2023/05/16 11:49:08;;;;;;;2.83;1.60;;;22.00;52.70;;;;;;5036816;28;20040;-66
2023/05/16 11:51:42;;;;;;;3.10;1.70;;;22.10;52.70;;;;;;5036128;28;20133;-66
2023/05/16 11:54:09;;;;;;;2.85;1.48;;;22.00;52.60;;;;;;5038226;28;20127;-66
2023/05/16 11:56:35;;;;;;;3.33;1.80;;;22.00;52.70;;;;;;5036578;28;20021;-66
2023/05/16 11:59:01;;;;;;;2.92;1.65;;;22.00;52.60;;;;;;5038531;28;20021;-66
2023/05/16 12:01:38;;;;;;;2.72;1.60;;;22.00;52.60;;;;;;5036594;28;20033;-66
2023/05/16 12:04:11;;;;;;;2.92;1.60;;;22.00;52.60;;;;;;5035565;28;20565;-66
2023/05/16 12:06:37;;;;;;;3.88;1.58;;;22.00;52.60;;;;;;5036891;28;20033;-66
2023/05/16 12:09:09;;;;;;;4.07;1.70;;;22.00;52.60;;;;;;5037036;28;20029;-67
2023/05/16 12:11:41;;;;;;;3.40;1.70;;;22.10;52.70;;;;;;5036497;28;20033;-67
2023/05/16 12:14:10;;;;;;;2.42;1.30;;;22.00;52.60;;;;;;5037448;28;20380;-67
2023/05/16 12:16:36;;;;;;;2.85;1.50;;;22.00;52.60;;;;;;5038003;28;20037;-67
2023/05/16 12:19:04;;;;;;;2.60;1.40;;;22.00;52.70;;;;;;5051196;28;20468;-66
2023/05/16 12:21:30;;;;;;;2.90;1.52;;;22.10;52.70;;;;;;5036691;28;20091;-66
2023/05/16 12:24:00;;;;;;;3.97;1.60;;;22.00;52.70;;;;;;5036880;28;20626;-66
2023/05/16 12:26:26;;;;;;;3.10;1.70;;;22.10;53.20;;;;;;5037681;28;20025;-67
2023/05/16 12:28:59;;;;;;;3.58;1.60;;;22.00;52.60;;;;;;5035556;28;20048;-67
2023/05/16 12:31:25;;;;;;;3.33;1.70;;;22.10;52.70;;;;;;5036259;28;20496;-65
2023/05/16 12:33:53;;;;;;;2.47;1.55;;;22.00;52.70;;;;;;5037638;28;20045;-67
2023/05/16 12:36:19;;;;;;;2.78;1.42;;;22.10;52.70;;;;;;5038398;28;20101;-66
2023/05/16 12:38:46;;;;;;;2.67;1.50;;;22.10;52.70;;;;;;5037061;28;20108;-66
2023/05/16 12:41:20;;;;;;;2.58;1.42;;;22.00;52.70;;;;;;5036686;28;20039;-66
2023/05/16 12:43:47;;;;;;;2.75;1.63;;;22.10;52.70;;;;;;5037070;28;20539;-66
2023/05/16 12:46:13;;;;;;;2.35;1.40;;;22.10;52.70;;;;;;5037870;28;20033;-66
2023/05/16 12:48:40;;;;;;;3.38;1.50;;;22.10;52.70;;;;;;5036889;28;20028;-66
2023/05/16 12:51:18;;;;;;;3.15;1.42;;;22.10;52.70;;;;;;5038871;28;20060;-67